Flight Track Log - Related Links

Times and Time Zones

All times are in EDT time to prevent confusion due to time zone crossing. See the SWA3247 flight status page for this flight to view local times or setup timezone preferences in your user account.

Time Position Orientation Groundspeed Altitude Reporting Facility
EDT Latitude Longitude Course Direction KTS MPH feet Rate Location/Type
Thu 08:55:19 PM 36.0769 -115.1119 90° East 177 204 3,100  Level Los Angeles Center
Thu 08:55:55 PM 36.0767 -115.0722 90° East 192 221 3,800 1,670 Climbing Los Angeles Center
Thu 08:56:56 PM 36.0781 -114.9892 89° East 246 283 5,800 1,959 Climbing Los Angeles Center
Thu 08:58:22 PM 36.0908 -114.8617 83° East 286 329 8,600 2,189 Climbing Los Angeles Center
Thu 08:59:24 PM 36.1106 -114.7372 79° East 306 352 11,200 2,468 Climbing Los Angeles Center
Thu 09:00:26 PM 36.1308 -114.6217 78° East 338 389 13,700 2,274 Climbing Los Angeles Center
Thu 09:01:28 PM 36.1494 -114.5033 79° East 349 402 15,900 2,129 Climbing Los Angeles Center
Thu 09:02:30 PM 36.1706 -114.3794 78° East 365 420 18,100 1,839 Climbing Los Angeles Center
Thu 09:03:32 PM 36.1922 -114.2478 78° East 385 443 19,700 1,839 Climbing Los Angeles Center
Thu 09:04:34 PM 36.2094 -114.1083 81° East 407 468 21,900 1,935 Climbing Los Angeles Center
Thu 09:05:36 PM 36.2256 -113.9686 82° East 410 472 23,700 1,756 Climbing Los Angeles Center
Thu 09:06:37 PM 36.2458 -113.7947 82° East 424 488 25,500 1,645 Climbing Los Angeles Center
Thu 09:07:40 PM 36.2625 -113.6464 82° East 433 498 27,100 1,452 Climbing Los Angeles Center
Thu 09:08:41 PM 36.2811 -113.4947 81° East 443 510 28,500 1,512 Climbing Los Angeles Center
Thu 09:09:43 PM 36.2989 -113.3406 82° East 451 519 30,200 1,694 Climbing Los Angeles Center
Thu 09:10:45 PM 36.3286 -113.1797 77° East 448 516 32,000 1,452 Climbing Los Angeles Center
Thu 09:11:47 PM 36.3808 -113.0417 65° Northeast 444 511 33,200 1,161 Climbing Los Angeles Center
Thu 09:12:49 PM 36.4314 -112.9017 66° East 446 513 34,400 871 Climbing Los Angeles Center
Thu 09:13:51 PM 36.4833 -112.7606 65° Northeast 450 518 35,000 293 Climbing Los Angeles Center
Thu 09:14:52 PM 36.5450 -112.5931 65° Northeast 447 514 35,000  Level Los Angeles Center
Thu 09:15:54 PM 36.5958 -112.4542 65° Northeast 445 512 35,000  Level Los Angeles Center
Thu 09:16:56 PM 36.6464 -112.3150 66° East 444 511 35,000  Level Los Angeles Center
Thu 09:17:58 PM 36.6969 -112.1769 65° Northeast 442 509 35,000  Level Los Angeles Center
Thu 09:19:00 PM 36.7464 -112.0406 66° East 437 503 35,000  Level Los Angeles Center
Thu 09:20:02 PM 36.7961 -111.9047 65° Northeast 435 501 35,000  Level Los Angeles Center
Thu 09:21:04 PM 36.8544 -111.7408 66° East 432 497 35,000  Level Los Angeles Center
Thu 09:22:13 PM 36.9039 -111.6028 66° East 435 501 35,000  Level Denver Center
Thu 09:23:15 PM 36.9528 -111.4653 66° East 435 501 35,000  Level Denver Center
Thu 09:24:17 PM 37.0092 -111.3014 67° East 432 497 35,000  Level Denver Center
Thu 09:25:18 PM 37.0578 -111.1619 66° East 436 502 35,000  Level Denver Center
Thu 09:26:20 PM 37.1064 -111.0222 66° East 439 505 35,000  Level Denver Center
Thu 09:27:22 PM 37.1544 -110.8831 67° East 439 505 35,000  Level Denver Center
Thu 09:28:24 PM 37.2031 -110.7419 67° East 441 507 35,000  Level Denver Center
Thu 09:29:25 PM 37.2517 -110.6028 66° East 440 506 35,000  Level Denver Center
Thu 09:30:27 PM 37.3094 -110.4342 67° East 439 505 35,000  Level Denver Center
Thu 09:31:29 PM 37.3564 -110.2936 67° East 438 504 35,000  Level Denver Center
Thu 09:32:31 PM 37.4033 -110.1553 67° East 439 505 35,000  Level Denver Center
Thu 09:33:32 PM 37.4481 -110.0214 67° East 434 499 35,000  Level Denver Center
Thu 09:34:34 PM 37.5017 -109.8650 67° East 434 499 35,000  Level Denver Center
Thu 09:35:36 PM 37.5467 -109.7286 67° East 438 504 35,000  Level Denver Center
Thu 09:36:38 PM 37.5997 -109.5694 67° East 441 507 35,000  Level Denver Center
Thu 09:37:39 PM 37.6581 -109.4406 60° Northeast 438 504 35,000  Level Denver Center
Thu 09:38:41 PM 37.7375 -109.2947 55° Northeast 449 517 35,000 194 Level Denver Center
Thu 09:39:43 PM 37.8067 -109.1722 54° Northeast 448 516 35,400 774 Climbing Denver Center
Thu 09:40:45 PM 37.8758 -109.0508 54° Northeast 445 512 36,600 780 Climbing Denver Center
Thu 09:41:46 PM 37.9544 -108.9086 55° Northeast 442 509 37,000 195 Climbing Denver Center
Thu 09:42:48 PM 38.0206 -108.7858 56° Northeast 441 507 37,000  Level Denver Center
Thu 09:43:50 PM 38.0897 -108.6353 60° Northeast 443 510 37,000  Level Denver Center
Thu 09:44:52 PM 38.1278 -108.4936 71° East 443 510 37,000  Level Denver Center
Thu 09:45:54 PM 38.1733 -108.3275 71° East 443 510 37,000  Level Denver Center
Thu 09:46:55 PM 38.2108 -108.1853 71° East 444 511 37,000  Level Denver Center
Thu 09:47:57 PM 38.2553 -108.0206 71° East 444 511 37,000  Level Denver Center
Thu 09:48:59 PM 38.2928 -107.8786 71° East 442 509 37,000  Level Denver Center
Thu 09:50:01 PM 38.3306 -107.7378 71° East 441 507 37,000  Level Denver Center
Thu 09:51:02 PM 38.3744 -107.5711 71° East 445 512 37,000  Level Denver Center
Thu 09:52:04 PM 38.4114 -107.4308 71° East 440 506 37,000  Level Denver Center
Thu 09:53:06 PM 38.4544 -107.2661 71° East 440 506 37,000  Level Denver Center
Thu 09:54:07 PM 38.4783 -107.1192 78° East 443 510 37,000  Level Denver Center
Thu 09:55:09 PM 38.4986 -106.9653 80° East 443 510 37,000  Level Denver Center
Thu 09:56:11 PM 38.5183 -106.8128 81° East 440 506 37,000  Level Denver Center
Thu 09:57:13 PM 38.5397 -106.6592 80° East 442 509 37,000  Level Denver Center
Thu 09:58:14 PM 38.5708 -106.4778 78° East 440 506 37,000  Level Denver Center
Thu 09:59:16 PM 38.6097 -106.3306 71° East 439 505 37,000  Level Denver Center
Thu 10:00:18 PM 38.6517 -106.1819 70° East 442 509 37,000  Level Denver Center
Thu 10:01:20 PM 38.6961 -106.0256 70° East 442 509 37,000  Level Denver Center
Thu 10:02:21 PM 38.7383 -105.8769 70° East 446 513 37,000  Level Denver Center
Thu 10:03:23 PM 38.7792 -105.7261 71° East 449 517 37,000  Level Denver Center
Thu 10:04:25 PM 38.8214 -105.5772 70° East 447 514 37,000  Level Denver Center
Thu 10:05:27 PM 38.8631 -105.4267 70° East 451 519 37,000  Level Denver Center
Thu 10:06:29 PM 38.9117 -105.2481 71° East 446 513 37,000  Level Denver Center
Thu 10:07:30 PM 38.9519 -105.0986 71° East 446 513 37,000  Level Denver Center
Thu 10:08:32 PM 38.9922 -104.9514 71° East 441 507 37,000  Level Denver Center
Thu 10:09:34 PM 39.0322 -104.8036 71° East 441 507 37,000  Level Denver Center
Thu 10:10:36 PM 39.0731 -104.6544 71° East 444 511 37,000  Level Denver Center
Thu 10:11:38 PM 39.1203 -104.4750 71° East 445 512 37,000  Level Denver Center
Thu 10:12:39 PM 39.1597 -104.3244 71° East 448 516 37,000  Level Denver Center
Thu 10:13:41 PM 39.1994 -104.1731 71° East 449 517 37,000  Level Denver Center
Thu 10:14:43 PM 39.2394 -104.0233 71° East 446 513 37,000  Level Denver Center
Thu 10:15:45 PM 39.2789 -103.8728 71° East 447 514 37,000  Level Denver Center
Thu 10:16:46 PM 39.3181 -103.7217 71° East 447 514 37,000  Level Denver Center
Thu 10:17:48 PM 39.3633 -103.5400 72° East 446 513 37,000  Level Denver Center
Thu 10:18:50 PM 39.4011 -103.3911 72° East 438 504 37,000  Level Denver Center
Thu 10:19:52 PM 39.4403 -103.2417 71° East 441 507 37,000  Level Denver Center
Thu 10:20:53 PM 39.4781 -103.0925 72° East 438 504 37,000  Level Denver Center
Thu 10:21:55 PM 39.5153 -102.9425 72° East 438 504 37,000  Level Denver Center
Thu 10:22:57 PM 39.5531 -102.7911 72° East 442 509 37,000  Level Denver Center
Thu 10:23:59 PM 39.5903 -102.6389 72° East 445 512 37,000  Level Denver Center
Thu 10:25:01 PM 39.6350 -102.4578 72° East 448 516 37,000  Level Denver Center
Thu 10:26:02 PM 39.6706 -102.3106 73° East 448 516 37,000  Level Denver Center
Thu 10:27:04 PM 39.7128 -102.1383 72° East 449 517 37,000  Level Denver Center
Thu 10:28:06 PM 39.7475 -101.9900 73° East 449 517 37,000  Level Denver Center
Thu 10:29:08 PM 39.7892 -101.8178 72° East 448 516 37,000  Level Denver Center
Thu 10:30:10 PM 39.8236 -101.6703 73° East 448 516 37,000  Level Denver Center
Thu 10:31:11 PM 39.8644 -101.4978 73° East 448 516 37,000  Level Denver Center
Thu 10:32:13 PM 39.8989 -101.3503 73° East 448 516 37,000  Level Denver Center
Thu 10:33:15 PM 39.9331 -101.2019 73° East 448 516 37,000  Level Denver Center
Thu 10:34:16 PM 39.9725 -101.0303 73° East 445 512 37,000  Level Denver Center
Thu 10:35:18 PM 40.0069 -100.8811 73° East 449 517 37,000  Level Denver Center
Thu 10:36:20 PM 40.0456 -100.7058 74° East 452 520 37,000  Level Denver Center
Thu 10:37:21 PM 40.0800 -100.5550 73° East 456 525 37,000  Level Denver Center
Thu 10:38:23 PM 40.1197 -100.3781 74° East 458 527 37,000  Level Denver Center
Thu 10:39:25 PM 40.1542 -100.2272 73° East 456 525 37,000  Level Denver Center
Thu 10:40:26 PM 40.1925 -100.0503 74° East 456 525 37,000  Level Denver Center
Thu 10:41:28 PM 40.2272 -99.8894 74° East 456 525 37,000  Level Denver Center
Thu 10:42:30 PM 40.2633 -99.7297 73° East 458 527 37,000  Level Denver Center
Thu 10:43:31 PM 40.2975 -99.5706 74° East 456 525 37,000  Level Denver Center
Thu 10:44:33 PM 40.3311 -99.4081 75° East 461 531 37,000  Level Denver Center
Thu 10:45:34 PM 40.3653 -99.2478 74° East 460 529 37,000  Level Denver Center
Thu 10:46:05 PM 40.3853 -99.1525 75° East 461 531 37,000  Level Minneapolis Center
Thu 10:47:07 PM 40.4200 -98.9933 74° East 458 527 37,000  Level Minneapolis Center
Thu 10:48:20 PM 40.4525 -98.8317 75° East 460 529 37,000  Level Minneapolis Center
Thu 10:49:22 PM 40.4936 -98.6369 74° East 463 533 37,000  Level Minneapolis Center
Thu 10:50:24 PM 40.5258 -98.4742 75° East 464 534 37,000  Level Minneapolis Center
Thu 10:51:26 PM 40.5661 -98.2789 75° East 464 534 37,000  Level Minneapolis Center
Thu 10:52:27 PM 40.5986 -98.1153 75° East 464 534 37,000  Level Minneapolis Center
Thu 10:53:29 PM 40.6306 -97.9528 75° East 463 533 37,000  Level Minneapolis Center
Thu 10:54:30 PM 40.6633 -97.7894 75° East 463 533 37,000  Level Minneapolis Center
Thu 10:55:32 PM 40.6961 -97.6247 75° East 466 536 37,000  Level Minneapolis Center
Thu 10:56:33 PM 40.7272 -97.4617 76° East 462 532 37,000  Level Minneapolis Center
Thu 10:57:35 PM 40.7600 -97.2928 76° East 468 539 37,000  Level Minneapolis Center
Thu 10:58:36 PM 40.7917 -97.1272 76° East 467 537 37,000  Level Minneapolis Center
Thu 10:59:38 PM 40.8306 -96.9267 76° East 471 542 37,000  Level Minneapolis Center
Thu 11:00:52 PM 40.8619 -96.7581 76° East 474 545 37,000  Level Minneapolis Center
Thu 11:01:53 PM 40.8922 -96.5892 77° East 474 545 37,000  Level Minneapolis Center
Thu 11:02:55 PM 40.9314 -96.3883 75° East 474 545 37,000  Level Minneapolis Center
Thu 11:03:56 PM 40.9614 -96.2186 77° East 474 545 37,000  Level Minneapolis Center
Thu 11:05:10 PM 40.9919 -96.0494 76° East 476 548 37,000  Level Minneapolis Center
Thu 11:06:11 PM 41.0219 -95.8783 77° East 481 554 37,000  Level Minneapolis Center
Thu 11:07:13 PM 41.0647 -95.6389 77° East 482 555 37,000  Level Minneapolis Center
Thu 11:08:15 PM 41.0953 -95.4661 77° East 486 559 37,000  Level Minneapolis Center
Thu 11:09:16 PM 41.1264 -95.2925 77° East 487 560 37,000  Level Minneapolis Center
Thu 11:10:18 PM 41.1564 -95.1181 77° East 487 560 37,000  Level Minneapolis Center
Thu 11:11:19 PM 41.1861 -94.9436 77° East 487 560 37,000  Level Minneapolis Center
Thu 11:12:21 PM 41.2156 -94.7681 77° East 487 560 37,000  Level Minneapolis Center
Thu 11:13:23 PM 41.2506 -94.5589 77° East 486 559 37,000  Level Minneapolis Center
Thu 11:14:24 PM 41.2792 -94.3856 78° East 482 555 37,000  Level Minneapolis Center
Thu 11:15:26 PM 41.3072 -94.2128 78° East 481 554 37,000  Level Minneapolis Center
Thu 11:16:27 PM 41.3328 -94.0556 78° East 481 554 37,000  Level Minneapolis Center
Thu 11:17:29 PM 41.3600 -93.8819 78° East 482 555 37,000  Level Minneapolis Center
Thu 11:18:42 PM 41.3989 -93.6406 78° East 480 552 37,000  Level Minneapolis Center
Thu 11:19:44 PM 41.4275 -93.4653 78° East 483 556 37,000  Level Minneapolis Center
Thu 11:20:45 PM 41.4550 -93.2886 78° East 488 562 37,000  Level Minneapolis Center
Thu 11:21:47 PM 41.4822 -93.1131 78° East 487 560 37,000  Level Minneapolis Center
Thu 11:22:48 PM 41.5089 -92.9372 78° East 486 559 37,000  Level Minneapolis Center
Thu 11:24:02 PM 41.5361 -92.7600 78° East 488 562 37,000  Level Minneapolis Center
Thu 11:25:04 PM 41.5669 -92.5467 79° East 490 564 37,000  Level Minneapolis Center
Thu 11:26:05 PM 41.5983 -92.3336 79° East 490 564 37,000  Level Minneapolis Center
Thu 11:27:15 PM 41.6247 -92.1475 79° East 484 557 37,000  Level Chicago Center
Thu 11:28:16 PM 41.6494 -91.9717 79° East 486 559 37,000  Level Chicago Center
Thu 11:29:17 PM 41.6739 -91.7978 79° East 483 556 37,000  Level Chicago Center
Thu 11:30:19 PM 41.7028 -91.5894 79° East 482 555 37,000  Level Chicago Center
Thu 11:31:21 PM 41.7278 -91.4178 79° East 479 551 37,000  Level Chicago Center
Thu 11:32:21 PM 41.7508 -91.2472 80° East 473 544 37,000  Level Chicago Center
Thu 11:33:23 PM 41.7739 -91.0717 80° East 480 552 37,000  Level Chicago Center
Thu 11:34:24 PM 41.7975 -90.8961 80° East 487 560 37,000  Level Chicago Center
Thu 11:35:25 PM 41.8200 -90.7206 80° East 485 558 37,000  Level Chicago Center
Thu 11:36:26 PM 41.8467 -90.5119 80° East 481 554 37,000  Level Chicago Center
Thu 11:37:28 PM 41.8708 -90.3344 80° East 487 560 37,000  Level Chicago Center
Thu 11:38:29 PM 41.8936 -90.1567 80° East 491 565 37,000  Level Chicago Center
Thu 11:39:30 PM 41.9144 -89.9792 81° East 489 563 37,000  Level Chicago Center
Thu 11:40:32 PM 41.9378 -89.7875 81° East 487 560 37,000  Level Chicago Center
Thu 11:41:33 PM 41.9606 -89.6067 80° East 492 566 37,000  Level Chicago Center
Thu 11:42:35 PM 41.9825 -89.4253 81° East 495 570 37,000  Level Chicago Center
Thu 11:43:36 PM 42.0031 -89.2450 81° East 491 565 37,000  Level Chicago Center
Thu 11:44:37 PM 42.0236 -89.0636 81° East 490 564 37,000  Level Chicago Center
Thu 11:45:38 PM 42.0483 -88.8472 81° East 491 565 37,000  Level Chicago Center
Thu 11:46:40 PM 42.0686 -88.6678 81° East 488 562 37,000  Level Chicago Center
Thu 11:47:41 PM 42.0892 -88.4889 81° East 487 560 37,000  Level Chicago Center
Thu 11:48:42 PM 42.1078 -88.3108 82° East 483 556 37,000  Level Chicago Center
Thu 11:49:44 PM 42.1272 -88.1292 82° East 487 560 37,000  Level Chicago Center
Thu 11:50:45 PM 42.1458 -87.9506 82° East 482 555 37,000  Level Chicago Center
Thu 11:51:46 PM 42.1642 -87.7700 82° East 485 558 37,000  Level Chicago Center
Thu 11:52:47 PM 42.1825 -87.5889 82° East 488 562 37,000  Level Chicago Center
Thu 11:53:49 PM 42.2017 -87.4086 82° East 487 560 37,000  Level Chicago Center
Thu 11:54:50 PM 42.2236 -87.1889 82° East 493 567 37,000  Level Chicago Center
Thu 11:55:51 PM 42.2403 -87.0058 83° East 494 568 37,000  Level Chicago Center
Thu 11:56:52 PM 42.2589 -86.8211 82° East 498 573 37,000  Level Chicago Center
Thu 11:57:54 PM 42.2733 -86.6617 83° East 502 578 37,000  Level Chicago Center
Thu 11:58:55 PM 42.2942 -86.4375 83° East 501 577 37,000  Level Chicago Center
Thu 11:59:56 PM 42.3103 -86.2614 83° East 504 580 37,000  Level Chicago Center
Fri 12:00:57 AM 42.3267 -86.0767 83° East 502 578 37,000  Level Chicago Center
Fri 12:01:59 AM 42.3428 -85.8925 83° East 499 574 37,000  Level Chicago Center
Fri 12:03:00 AM 42.3589 -85.7089 83° East 498 573 37,000  Level Chicago Center
Fri 12:04:01 AM 42.3778 -85.4889 83° East 497 572 37,000  Level Chicago Center
Fri 12:05:02 AM 42.3931 -85.3067 83° East 495 570 37,000  Level Chicago Center
Fri 12:06:04 AM 42.4072 -85.1261 84° East 489 563 37,000  Level Chicago Center
Fri 12:07:05 AM 42.4214 -84.9442 84° East 488 562 37,000  Level Chicago Center
Fri 12:08:06 AM 42.4358 -84.7631 84° East 487 560 37,000  Level Chicago Center
Fri 12:09:08 AM 42.4492 -84.5839 84° East 482 555 37,000  Level Chicago Center
Fri 12:10:09 AM 42.4628 -84.4047 84° East 481 554 37,000  Level Chicago Center
Fri 12:10:57 AM 42.4731 -84.2403 85° East 479 551 37,000  Level Cleveland Center
Fri 12:11:57 AM 42.4847 -84.0661 85° East 479 551 37,000  Level Cleveland Center
Fri 12:12:57 AM 42.5003 -83.8867 83° East 479 551 37,000  Level Cleveland Center
Fri 12:13:57 AM 42.5114 -83.7100 85° East 479 551 37,000  Level Cleveland Center
Fri 12:14:57 AM 42.5244 -83.5331 84° East 479 551 37,000  Level Cleveland Center
Fri 12:15:57 AM 42.5331 -83.3586 86° East 474 545 37,000  Level Cleveland Center
Fri 12:16:57 AM 42.5456 -83.1844 84° East 469 540 37,000  Level Cleveland Center
Fri 12:17:57 AM 42.5556 -83.0044 86° East 469 540 37,000  Level Cleveland Center
Fri 12:18:57 AM 42.5631 -82.8469 86° East 469 540 37,000  Level Cleveland Center
Fri 12:19:56 AM 42.5747 -82.6697 85° East 469 540 37,000  Level Cleveland Center
Fri 12:20:57 AM 42.5839 -82.4950 86° East 469 540 37,000  Level Cleveland Center
Fri 12:21:57 AM 42.5931 -82.3178 86° East 469 540 37,000  Level Cleveland Center
Fri 12:22:57 AM 42.6039 -82.1431 85° East 464 534 37,000  Level Cleveland Center
Fri 12:23:57 AM 42.6125 -81.9656 86° East 464 534 37,000  Level Cleveland Center
Fri 12:24:57 AM 42.6250 -81.7739 85° East 464 534 37,000  Level Cleveland Center
Fri 12:25:57 AM 42.6350 -81.5936 86° East 458 527 37,000  Level Cleveland Center
Fri 12:26:57 AM 42.6425 -81.4411 86° East 461 531 37,000  Level Cleveland Center
Fri 12:27:56 AM 42.6500 -81.2664 87° East 456 525 37,000  Level Cleveland Center
Fri 12:28:57 AM 42.6592 -81.0942 86° East 463 533 37,000  Level Cleveland Center
Fri 12:29:57 AM 42.6639 -80.9164 88° East 463 533 37,000  Level Cleveland Center
Fri 12:30:57 AM 42.6747 -80.7442 85° East 463 533 37,000  Level Cleveland Center
Fri 12:31:57 AM 42.6792 -80.5436 88° East 458 527 37,000  Level Cleveland Center
Fri 12:32:57 AM 42.6872 -80.3686 86° East 465 535 37,000  Level Cleveland Center
Fri 12:33:57 AM 42.6931 -80.1961 87° East 463 533 37,000  Level Cleveland Center
Fri 12:34:57 AM 42.7006 -80.0267 86° East 455 524 37,000  Level Cleveland Center
Fri 12:35:57 AM 42.7058 -79.8542 88° East 450 518 37,000  Level Cleveland Center
Fri 12:36:57 AM 42.7111 -79.6847 88° East 450 518 37,000  Level Cleveland Center
Fri 12:37:57 AM 42.7178 -79.5150 87° East 450 518 37,000  Level Cleveland Center
Fri 12:38:57 AM 42.7225 -79.3453 88° East 450 518 37,000  Level Cleveland Center
Fri 12:39:57 AM 42.7267 -79.1728 88° East 450 518 37,000  Level Cleveland Center
Fri 12:40:57 AM 42.7328 -79.0003 87° East 450 518 37,000  Level Cleveland Center
Fri 12:41:57 AM 42.7367 -78.8333 88° East 450 518 37,000  Level Cleveland Center
Fri 12:42:57 AM 42.7403 -78.6608 88° East 450 518 37,000  Level Cleveland Center
Fri 12:43:57 AM 42.7433 -78.4883 89° East 450 518 37,000 -800 Level Cleveland Center
Fri 12:44:57 AM 42.7464 -78.3158 89° East 455 524 35,400 -1,750 Descending Cleveland Center
Fri 12:45:57 AM 42.7492 -78.1489 89° East 455 524 33,500 -1,750 Descending Cleveland Center
Fri 12:46:57 AM 42.7519 -77.9847 89° East 441 507 31,900 -1,600 Descending Cleveland Center
Fri 12:47:57 AM 42.7564 -77.8175 88° East 441 507 30,300 -1,450 Descending Cleveland Center
Fri 12:48:57 AM 42.7606 -77.6450 88° East 441 507 29,000 -650 Descending Cleveland Center
Fri 12:49:57 AM 42.7622 -77.4694 89° East 446 513 29,000  Level Cleveland Center
Fri 12:52:01 AM 42.7647 -77.1186 89° East 447 514 29,000  Level Boston Center
Fri 12:53:01 AM 42.7656 -76.9461 90° East 447 514 29,000  Level Boston Center
Fri 12:54:01 AM 42.7658 -76.7736 90° East 447 514 29,000  Level Boston Center
Fri 12:55:01 AM 42.7681 -76.6067 89° East 442 509 29,000 -500 Level Boston Center
Fri 12:56:01 AM 42.7675 -76.4453 90° East 432 497 28,000 -800 Descending Boston Center
Fri 12:57:01 AM 42.7689 -76.2900 89° East 420 483 27,400 -500 Descending Boston Center
Fri 12:58:01 AM 42.7672 -76.1456 91° East 420 483 27,000 -200 Descending Boston Center
Fri 12:59:01 AM 42.7703 -75.9900 88° East 412 474 27,000  Level Boston Center
Fri 01:00:01 AM 42.7689 -75.8286 91° East 417 480 27,000 -600 Level Boston Center
Fri 01:01:01 AM 42.7675 -75.6644 91° East 422 486 25,800 -1,500 Descending Boston Center
Fri 01:02:01 AM 42.7675 -75.5061 90° East 422 486 24,000 -1,800 Descending Boston Center
Fri 01:03:01 AM 42.7672 -75.3561 90° East 409 471 22,200 -1,800 Descending Boston Center
Fri 01:04:01 AM 42.7647 -75.2089 91° East 396 456 20,400 -2,150 Descending Boston Center
Fri 01:05:01 AM 42.7639 -75.0675 90° East 384 442 17,900 -2,250 Descending Boston Center
Fri 01:06:01 AM 42.7628 -74.9317 91° East 370 426 15,900 -2,182 Descending Boston Center
Fri 01:06:40 AM 42.7608 -74.8325 91° East 345 397 14,300 -2,220 Descending Boston Center
Fri 01:07:41 AM 42.7617 -74.6939 89° East 339 390 12,200 -1,537 Descending Boston Center
Fri 01:08:41 AM 42.7597 -74.5781 91° East 310 357 11,200 -843 Descending Boston Center
Fri 01:09:42 AM 42.7575 -74.4733 92° East 268 308 10,500 -1,328 Descending Boston Center
Fri 01:10:43 AM 42.7550 -74.3742 92° East 261 300 8,500 -1,884 Descending Boston Center
Fri 01:11:43 AM 42.7567 -74.2753 89° East 257 296 6,700 -1,835 Descending Boston Center
Fri 01:12:44 AM 42.7975 -74.1972 54° Northeast 257 296 4,800 -1,785 Descending Boston Center
Fri 01:13:44 AM 42.8403 -74.1219 52° Northeast 253 291 3,100 -893 Descending Boston Center
Fri 01:14:45 AM 42.8831 -74.0525 50° Northeast 231 266 3,000 -49 Descending Boston Center
Fri 01:15:46 AM 42.9047 -73.9819 67° East 201 231 3,000 -50 Level Boston Center
Fri 01:16:46 AM 42.9119 -73.9058 83° East 185 213 2,900 -496 Descending Boston Center
Fri 01:17:47 AM 42.9106 -73.8489 92° East 145 167 2,000 -446 Descending Boston Center
Fri 01:18:47 AM 42.8733 -73.8283 158° South 136 157 2,000  Level Boston Center
Fri 01:20:00 AM 42.8406 -73.7908 140° Southeast 131 151 2,000 -393 Level Boston Center
Fri 01:20:49 AM 42.7964 -73.8097 197° South 146 168 1,200 -980 Descending Boston Center
Fri 01:22:00 AM 42.7491 -73.8020 175° South  Level Estimated
Fri 01:29:00 AM 42.7491 -73.8020 175° South  Level Estimated
Fri 01:30:00 AM 42.7491 -73.8020 175° South  Level Estimated
Fri 01:31:00 AM 42.7491 -73.8020 175° South  Level Estimated
Fri 01:32:00 AM 42.7491 -73.8020 175° South  Level Estimated

Login

Don't have an account? Register now (free) for customized features, flight alerts, and more!